Time;durP1;ratioP1;P1;durP2;ratioP2;P2;SDS_P1;SDS_P2;PMS_P1;PMS_P2;Temp;Humidity;BMP_temperature;BMP_pressure;BME280_temperature;BME280_humidity;BME280_pressure;Samples;Min_cycle;Max_cycle;Signal;HPM_P1;HPM_P2
2023/12/23 00:02:19;;;;;;;16.50;1.75;;;5.60;99.90;;;;;;4997803;28;20508;-92
2023/12/23 00:04:45;;;;;;;14.23;1.50;;;5.80;99.90;;;;;;5014827;28;20516;-93
2023/12/23 00:07:14;;;;;;;14.47;1.77;;;5.60;99.90;;;;;;5013621;28;20425;-93
2023/12/23 00:09:43;;;;;;;13.40;1.60;;;5.60;99.90;;;;;;5014296;28;20927;-92
2023/12/23 00:12:09;;;;;;;12.57;1.60;;;5.60;99.90;;;;;;5014698;28;20398;-90
2023/12/23 00:14:37;;;;;;;14.10;1.48;;;5.80;99.90;;;;;;5031376;28;20409;-93
2023/12/23 00:17:03;;;;;;;17.25;1.90;;;5.70;99.90;;;;;;5015373;28;20409;-93
2023/12/23 00:19:29;;;;;;;15.30;1.58;;;5.80;99.90;;;;;;5000783;28;20412;-94
2023/12/23 00:21:55;;;;;;;14.98;1.45;;;5.90;99.90;;;;;;5019036;28;20425;-92
2023/12/23 00:24:31;;;;;;;13.67;1.83;;;6.10;99.90;;;;;;5019125;28;20934;-93
2023/12/23 00:26:57;;;;;;;16.13;2.08;;;6.00;99.90;;;;;;5016455;28;20412;-93
2023/12/23 00:29:24;;;;;;;12.18;1.48;;;6.30;99.90;;;;;;5022665;28;20490;-92
2023/12/23 00:31:50;;;;;;;13.98;0.95;;;6.20;99.90;;;;;;5036415;28;20400;-91
2023/12/23 00:34:31;;;;;;;13.18;1.50;;;6.20;99.90;;;;;;5035677;28;20486;-93
2023/12/23 00:36:57;;;;;;;14.80;1.85;;;6.20;99.90;;;;;;5051194;28;20399;-92
2023/12/23 00:39:23;;;;;;;16.25;1.90;;;6.10;99.90;;;;;;5033724;28;20494;-92
2023/12/23 00:41:48;;;;;;;17.52;1.95;;;6.30;99.90;;;;;;5033855;28;20908;-92
2023/12/23 00:44:14;;;;;;;13.68;1.77;;;6.20;99.90;;;;;;5058322;28;20474;-90
2023/12/23 00:46:40;;;;;;;15.83;2.33;;;6.20;99.90;;;;;;5039646;28;20407;-93
2023/12/23 00:49:05;;;;;;;17.27;1.63;;;6.10;99.90;;;;;;5028873;28;20527;-93
2023/12/23 00:51:31;;;;;;;15.18;1.42;;;6.20;99.90;;;;;;5017291;28;20401;-94
2023/12/23 00:53:57;;;;;;;16.30;1.70;;;6.10;99.90;;;;;;5017455;28;20409;-91
2023/12/23 00:56:22;;;;;;;15.00;1.98;;;6.20;99.90;;;;;;5017357;28;20409;-91
2023/12/23 00:58:49;;;;;;;17.13;2.15;;;6.00;99.90;;;;;;5018481;28;20466;-92
2023/12/23 01:01:15;;;;;;;20.90;2.40;;;6.20;99.90;;;;;;5019231;28;20416;-93
2023/12/23 01:04:07;;;;;;;20.93;2.13;;;6.40;99.90;;;;;;5018087;28;20527;-94
2023/12/23 01:06:33;;;;;;;18.00;1.90;;;6.20;99.90;;;;;;5016334;28;20551;-91
2023/12/23 01:09:01;;;;;;;16.00;2.33;;;6.40;99.90;;;;;;5022161;28;20398;-93
2023/12/23 01:11:27;;;;;;;20.08;2.90;;;6.20;99.90;;;;;;5001411;28;20402;-92
2023/12/23 01:13:53;;;;;;;16.67;2.20;;;6.30;99.90;;;;;;5017841;28;20517;-90
2023/12/23 01:16:18;;;;;;;18.00;2.20;;;6.20;99.90;;;;;;5016506;28;20457;-94
2023/12/23 01:18:44;;;;;;;15.73;2.07;;;6.30;99.90;;;;;;5017267;28;20401;-91
2023/12/23 01:21:10;;;;;;;17.17;2.33;;;6.50;99.90;;;;;;5015734;28;20441;-91
2023/12/23 01:23:35;;;;;;;18.05;2.65;;;6.40;99.90;;;;;;5017590;28;20504;-92
2023/12/23 01:26:01;;;;;;;16.15;1.80;;;6.70;99.90;;;;;;5016892;28;20896;-90
2023/12/23 01:28:27;;;;;;;18.63;2.50;;;6.40;99.90;;;;;;5017748;28;20412;-93
2023/12/23 01:30:53;;;;;;;17.57;1.80;;;6.40;99.90;;;;;;5017550;28;20748;-92
2023/12/23 01:33:18;;;;;;;18.50;1.90;;;6.50;99.90;;;;;;5016901;28;20406;-91
2023/12/23 01:35:44;;;;;;;15.82;1.63;;;6.60;99.90;;;;;;5016836;28;20851;-91
2023/12/23 01:38:10;;;;;;;13.27;1.00;;;6.60;99.90;;;;;;5020123;28;20544;-93
2023/12/23 01:40:35;;;;;;;13.90;1.40;;;6.40;99.90;;;;;;5018003;28;20405;-92
2023/12/23 01:43:01;;;;;;;17.65;1.42;;;6.60;99.90;;;;;;5037868;28;20401;-91
2023/12/23 01:45:27;;;;;;;15.38;1.60;;;6.50;99.90;;;;;;5022909;28;20459;-94
2023/12/23 01:48:01;;;;;;;15.23;1.95;;;6.30;99.90;;;;;;5016423;28;20409;-94
2023/12/23 01:50:27;;;;;;;14.97;1.33;;;6.50;99.90;;;;;;5017031;28;20415;-91
2023/12/23 01:52:55;;;;;;;16.73;1.95;;;6.40;99.90;;;;;;5013954;28;20451;-90
2023/12/23 01:55:22;;;;;;;15.13;1.17;;;6.30;99.90;;;;;;5016266;28;20405;-93
2023/12/23 01:57:48;;;;;;;15.18;1.67;;;6.60;99.90;;;;;;5016145;28;20445;-92
2023/12/23 02:00:15;;;;;;;12.10;1.35;;;6.60;99.90;;;;;;5037157;28;20425;-94
2023/12/23 02:02:41;;;;;;;12.15;1.10;;;6.40;99.90;;;;;;5018421;28;20437;-93
2023/12/23 02:05:09;;;;;;;8.98;1.25;;;6.40;99.90;;;;;;5021345;28;20409;-92
2023/12/23 02:07:35;;;;;;;10.52;0.80;;;6.40;99.90;;;;;;5020501;28;20432;-91
2023/12/23 02:10:06;;;;;;;9.60;0.70;;;6.40;99.90;;;;;;5023792;28;20401;-93
2023/12/23 02:12:41;;;;;;;10.60;0.98;;;6.40;99.90;;;;;;5025856;28;20409;-94
2023/12/23 02:15:17;;;;;;;11.18;1.38;;;6.40;99.90;;;;;;5052246;28;20836;-92
2023/12/23 02:17:42;;;;;;;11.77;1.00;;;6.30;99.90;;;;;;5023635;28;20893;-92
2023/12/23 02:20:08;;;;;;;11.80;1.23;;;6.30;99.90;;;;;;5017287;28;20439;-93
2023/12/23 02:22:35;;;;;;;11.57;0.95;;;6.30;99.90;;;;;;5015835;28;20441;-91
2023/12/23 02:25:01;;;;;;;11.02;0.95;;;6.20;99.90;;;;;;5014226;28;20551;-92
2023/12/23 02:27:30;;;;;;;10.27;1.17;;;6.20;99.90;;;;;;5032625;28;21005;-88
2023/12/23 02:29:58;;;;;;;10.02;0.60;;;6.10;99.90;;;;;;5015744;28;20420;-91
2023/12/23 02:32:27;;;;;;;9.18;0.90;;;6.30;99.90;;;;;;5016800;28;20414;-93
2023/12/23 02:34:54;;;;;;;15.45;0.82;;;6.10;99.90;;;;;;5015362;28;20401;-92
2023/12/23 02:37:20;;;;;;;13.68;0.93;;;6.00;99.90;;;;;;5015516;28;20427;-92
2023/12/23 02:39:45;;;;;;;10.68;0.80;;;6.10;99.90;;;;;;5016256;28;20417;-93
2023/12/23 02:42:11;;;;;;;10.37;0.87;;;6.10;99.90;;;;;;5014433;28;20433;-91
2023/12/23 02:44:37;;;;;;;14.93;1.40;;;6.00;99.90;;;;;;5012692;28;20509;-91
2023/12/23 02:47:02;;;;;;;11.90;0.82;;;5.90;99.90;;;;;;4994646;28;21276;-91
2023/12/23 02:49:28;;;;;;;16.15;1.20;;;5.90;99.90;;;;;;5012244;28;20409;-90
2023/12/23 02:51:54;;;;;;;12.43;0.70;;;5.90;99.90;;;;;;5028359;28;20404;-92
2023/12/23 02:54:20;;;;;;;11.90;0.73;;;5.90;99.90;;;;;;5006737;28;20796;-91
2023/12/23 02:56:46;;;;;;;10.80;0.70;;;5.80;99.90;;;;;;5015292;28;20402;-91
2023/12/23 02:59:11;;;;;;;12.95;0.90;;;5.90;99.90;;;;;;5014184;28;20448;-91
2023/12/23 03:01:37;;;;;;;11.50;0.80;;;5.80;99.90;;;;;;5015689;28;20464;-91
2023/12/23 03:04:03;;;;;;;11.90;1.02;;;5.80;99.90;;;;;;5013381;28;20438;-93
2023/12/23 03:06:28;;;;;;;13.40;0.90;;;5.80;99.90;;;;;;5015771;28;20397;-91
2023/12/23 03:08:54;;;;;;;14.13;0.60;;;5.90;99.90;;;;;;5014265;28;20408;-88
2023/12/23 03:11:20;;;;;;;14.68;0.95;;;5.80;99.90;;;;;;5015227;28;20781;-88
2023/12/23 03:13:45;;;;;;;17.65;1.02;;;5.70;99.90;;;;;;5014564;28;20452;-89
2023/12/23 03:16:18;;;;;;;14.20;1.10;;;6.00;99.90;;;;;;5014133;28;20412;-88
2023/12/23 03:18:44;;;;;;;16.00;0.88;;;5.70;99.90;;;;;;5014931;28;20424;-89
2023/12/23 03:21:10;;;;;;;12.50;1.10;;;5.70;99.90;;;;;;5013044;28;20428;-87
2023/12/23 03:23:37;;;;;;;14.50;1.40;;;5.70;99.90;;;;;;5014644;28;20405;-88
2023/12/23 03:26:03;;;;;;;18.20;1.55;;;5.70;99.90;;;;;;5030135;28;20780;-88
2023/12/23 03:28:28;;;;;;;18.10;2.17;;;5.80;99.90;;;;;;5014417;28;20451;-87
2023/12/23 03:30:54;;;;;;;17.58;1.77;;;5.80;99.90;;;;;;5013150;28;20512;-86
2023/12/23 03:33:20;;;;;;;19.55;2.05;;;5.80;99.90;;;;;;5029371;28;20850;-86
2023/12/23 03:35:45;;;;;;;18.13;1.70;;;5.80;99.90;;;;;;5013981;28;20474;-88
2023/12/23 03:38:11;;;;;;;19.30;1.30;;;5.80;99.90;;;;;;5012544;28;20492;-88
2023/12/23 03:40:37;;;;;;;19.20;1.47;;;5.80;99.90;;;;;;5013617;28;20459;-89
2023/12/23 03:43:02;;;;;;;17.40;1.23;;;5.80;99.90;;;;;;5012198;28;20908;-88
2023/12/23 03:45:28;;;;;;;18.38;1.33;;;5.80;99.90;;;;;;5030231;28;20389;-88
2023/12/23 03:47:53;;;;;;;19.20;1.60;;;5.80;99.90;;;;;;5012538;28;20484;-88
2023/12/23 03:50:19;;;;;;;17.00;1.50;;;5.80;99.90;;;;;;5014371;28;20923;-89
2023/12/23 03:52:45;;;;;;;22.27;1.67;;;5.80;99.90;;;;;;5014120;28;20708;-88
2023/12/23 03:55:11;;;;;;;12.85;1.30;;;5.90;99.90;;;;;;5013613;28;20406;-88
2023/12/23 03:57:37;;;;;;;20.08;1.63;;;5.80;99.90;;;;;;5014720;28;20859;-90
2023/12/23 04:00:04;;;;;;;15.25;1.85;;;5.80;99.90;;;;;;5013032;28;20405;-89
2023/12/23 04:02:30;;;;;;;17.17;1.58;;;5.80;99.90;;;;;;5014590;28;20804;-90
2023/12/23 04:04:55;;;;;;;16.25;1.02;;;5.90;99.90;;;;;;5029524;28;20405;-90
2023/12/23 04:07:21;;;;;;;20.23;1.65;;;5.80;99.90;;;;;;5014314;28;20401;-90
2023/12/23 04:09:47;;;;;;;19.08;1.90;;;5.80;99.90;;;;;;5014311;28;20442;-89
2023/12/23 04:12:12;;;;;;;18.60;1.53;;;5.80;99.90;;;;;;5013523;28;20447;-90
2023/12/23 04:14:40;;;;;;;22.17;2.10;;;5.80;99.90;;;;;;5030939;28;20450;-90
2023/12/23 04:17:06;;;;;;;16.63;1.50;;;5.80;99.90;;;;;;5012150;28;20420;-90
2023/12/23 04:19:32;;;;;;;17.05;1.50;;;5.80;99.90;;;;;;5014318;28;20432;-91
2023/12/23 04:21:58;;;;;;;16.27;1.00;;;5.80;99.90;;;;;;5013185;28;20425;-89
2023/12/23 04:24:26;;;;;;;17.65;1.58;;;5.80;99.90;;;;;;5014449;28;20405;-90
2023/12/23 04:26:52;;;;;;;17.48;1.48;;;5.90;99.90;;;;;;5013414;28;20418;-89
2023/12/23 04:29:18;;;;;;;17.88;1.25;;;6.00;99.90;;;;;;5013910;28;20414;-89
2023/12/23 04:31:44;;;;;;;15.30;1.65;;;5.90;99.90;;;;;;5013816;28;20417;-90
2023/12/23 04:34:10;;;;;;;17.08;1.50;;;5.80;99.90;;;;;;5013043;28;21029;-89
2023/12/23 04:36:36;;;;;;;14.50;1.20;;;5.80;99.90;;;;;;5014232;28;20900;-90
2023/12/23 04:39:05;;;;;;;12.13;1.20;;;5.90;99.90;;;;;;5012187;28;20970;-89
2023/12/23 04:41:34;;;;;;;11.03;1.40;;;5.80;99.90;;;;;;5013920;28;20429;-90
2023/12/23 04:44:03;;;;;;;8.57;1.23;;;5.80;99.90;;;;;;5012877;28;20452;-88
2023/12/23 04:46:28;;;;;;;11.43;1.40;;;5.80;99.90;;;;;;5013665;28;20742;-89
2023/12/23 04:48:54;;;;;;;10.63;1.40;;;5.80;99.90;;;;;;5013777;28;20405;-88
2023/12/23 04:51:20;;;;;;;8.82;1.02;;;5.90;99.90;;;;;;5029324;28;20438;-90
2023/12/23 04:53:45;;;;;;;12.43;1.17;;;5.90;99.90;;;;;;5013828;28;20410;-89
2023/12/23 04:56:11;;;;;;;11.57;1.20;;;6.10;99.90;;;;;;5012625;28;20413;-89
2023/12/23 04:58:37;;;;;;;13.93;1.55;;;6.10;99.90;;;;;;5014179;28;20405;-89
2023/12/23 05:01:02;;;;;;;10.70;1.57;;;5.80;99.90;;;;;;5012410;28;20800;-89
2023/12/23 05:03:33;;;;;;;6.23;0.80;;;5.80;99.90;;;;;;5013466;28;20405;-90
2023/12/23 05:05:59;;;;;;;7.57;1.02;;;5.90;99.90;;;;;;5013222;28;20413;-88
2023/12/23 05:08:25;;;;;;;9.38;1.00;;;5.80;99.90;;;;;;5012929;28;20408;-90
2023/12/23 05:10:50;;;;;;;6.55;0.80;;;5.80;99.90;;;;;;5013762;28;20722;-89
2023/12/23 05:13:16;;;;;;;8.17;0.90;;;5.80;99.90;;;;;;5012486;28;20467;-89
2023/12/23 05:15:41;;;;;;;9.57;1.07;;;5.70;99.90;;;;;;5014070;28;20777;-90
2023/12/23 05:18:07;;;;;;;5.95;0.77;;;5.90;99.90;;;;;;5028628;28;20923;-90
2023/12/23 05:20:33;;;;;;;7.18;1.10;;;5.80;99.90;;;;;;5013390;28;20432;-89
2023/12/23 05:22:58;;;;;;;6.00;0.70;;;5.70;99.90;;;;;;5012608;28;20724;-90
2023/12/23 05:25:24;;;;;;;6.68;0.90;;;5.80;99.90;;;;;;5012948;28;20398;-91
2023/12/23 05:27:50;;;;;;;7.35;1.20;;;5.80;99.90;;;;;;5015252;28;20414;-89
2023/12/23 05:30:15;;;;;;;6.00;0.70;;;5.80;99.90;;;;;;5016048;28;20471;-90
2023/12/23 05:32:41;;;;;;;7.53;0.77;;;5.80;99.90;;;;;;5017026;28;20402;-89
2023/12/23 05:35:07;;;;;;;3.70;0.70;;;5.70;99.90;;;;;;5015695;28;20431;-89
2023/12/23 05:37:33;;;;;;;5.93;0.90;;;5.80;99.90;;;;;;5017487;28;20401;-90
2023/12/23 05:39:59;;;;;;;5.13;0.90;;;6.10;99.90;;;;;;5015988;28;20402;-89
2023/12/23 05:42:25;;;;;;;11.03;1.53;;;5.80;99.90;;;;;;5016978;28;20432;-90
2023/12/23 05:44:51;;;;;;;5.23;0.90;;;5.80;99.90;;;;;;5016585;28;20416;-89
2023/12/23 05:47:17;;;;;;;9.17;1.03;;;5.90;99.90;;;;;;5015970;28;20942;-90
2023/12/23 05:49:43;;;;;;;5.20;0.90;;;5.80;99.90;;;;;;5017098;28;20571;-89
2023/12/23 05:52:08;;;;;;;4.78;0.80;;;5.80;99.90;;;;;;5015284;28;20409;-89
2023/12/23 05:54:34;;;;;;;8.05;1.48;;;5.80;99.90;;;;;;5017397;28;20412;-91
2023/12/23 05:57:00;;;;;;;5.70;1.20;;;6.00;99.90;;;;;;5015749;28;20920;-94
2023/12/23 05:59:25;;;;;;;8.10;1.17;;;5.80;99.90;;;;;;5016745;28;20413;-89
2023/12/23 06:01:52;;;;;;;5.38;1.20;;;5.80;99.90;;;;;;5015854;28;20498;-90
2023/12/23 06:04:17;;;;;;;3.30;0.80;;;5.80;99.90;;;;;;5016337;28;20405;-90
2023/12/23 06:06:43;;;;;;;4.20;0.73;;;5.80;99.90;;;;;;5016701;28;20443;-90
2023/12/23 06:09:09;;;;;;;4.47;1.00;;;6.00;99.90;;;;;;5015343;28;20456;-90
2023/12/23 06:11:35;;;;;;;6.27;1.30;;;5.80;99.90;;;;;;5033199;28;20871;-89
2023/12/23 06:14:00;;;;;;;6.50;1.23;;;5.80;99.90;;;;;;5015313;28;20401;-90
2023/12/23 06:16:26;;;;;;;7.57;1.10;;;5.80;99.90;;;;;;5016883;28;20480;-90
2023/12/23 06:18:52;;;;;;;6.70;1.50;;;5.90;99.90;;;;;;5031513;28;20402;-90
2023/12/23 06:21:17;;;;;;;6.30;1.30;;;5.90;99.90;;;;;;5016051;28;20436;-89
2023/12/23 06:23:43;;;;;;;5.13;1.00;;;5.90;99.90;;;;;;5016435;28;20406;-90
2023/12/23 06:26:12;;;;;;;4.20;1.20;;;5.90;99.90;;;;;;5015280;28;21196;-89
2023/12/23 06:28:37;;;;;;;4.88;1.20;;;6.00;99.90;;;;;;5016601;28;20409;-90
2023/12/23 06:31:03;;;;;;;10.47;2.20;;;5.90;99.90;;;;;;5014558;28;20401;-92
2023/12/23 06:33:29;;;;;;;6.40;1.50;;;5.90;99.90;;;;;;5016421;28;20455;-90
2023/12/23 06:35:54;;;;;;;6.20;1.60;;;5.90;99.90;;;;;;5014764;28;20533;-89
2023/12/23 06:38:20;;;;;;;6.90;1.70;;;6.00;99.90;;;;;;5008831;28;20831;-90
2023/12/23 06:40:48;;;;;;;8.77;2.10;;;6.00;99.90;;;;;;5013962;28;20418;-90
2023/12/23 06:43:14;;;;;;;7.63;2.08;;;6.00;99.90;;;;;;5064319;28;20409;-90
2023/12/23 06:45:39;;;;;;;6.97;1.93;;;5.90;99.90;;;;;;5015058;28;20416;-89
2023/12/23 06:48:05;;;;;;;9.77;2.10;;;5.90;99.90;;;;;;5014311;28;20401;-90
2023/12/23 06:50:31;;;;;;;7.32;2.10;;;5.90;99.90;;;;;;5016177;28;20458;-90
2023/12/23 06:52:56;;;;;;;9.60;2.33;;;5.90;99.90;;;;;;5014118;28;20897;-89
2023/12/23 06:55:22;;;;;;;6.90;2.10;;;5.80;99.90;;;;;;5015905;28;20398;-91
2023/12/23 06:57:48;;;;;;;5.07;1.50;;;5.90;99.90;;;;;;5014689;28;20746;-91
2023/12/23 07:00:14;;;;;;;6.40;1.95;;;6.00;99.90;;;;;;5048969;28;20761;-92
2023/12/23 07:02:40;;;;;;;5.50;1.37;;;5.80;99.90;;;;;;5048041;28;20473;-91
2023/12/23 07:05:06;;;;;;;5.23;1.20;;;6.00;99.90;;;;;;5013802;28;20404;-91
2023/12/23 07:07:31;;;;;;;4.93;1.10;;;5.90;99.90;;;;;;5015074;28;20421;-91
2023/12/23 07:09:59;;;;;;;7.80;1.70;;;5.90;99.90;;;;;;5013911;28;20893;-92
2023/12/23 07:12:25;;;;;;;5.93;1.00;;;5.90;99.90;;;;;;5015711;28;20504;-90
2023/12/23 07:14:51;;;;;;;9.70;4.17;;;5.90;99.90;;;;;;5013500;28;20484;-90
2023/12/23 07:17:16;;;;;;;10.97;5.80;;;5.90;99.90;;;;;;5014889;28;20916;-91
2023/12/23 07:19:42;;;;;;;7.70;3.03;;;6.00;99.90;;;;;;5015194;28;20409;-89
2023/12/23 07:22:08;;;;;;;10.15;6.00;;;5.90;99.90;;;;;;5031043;28;20966;-91
2023/12/23 07:24:33;;;;;;;5.83;2.73;;;5.90;99.90;;;;;;5010021;28;20433;-89
2023/12/23 07:27:01;;;;;;;7.73;1.90;;;5.90;99.90;;;;;;5010782;28;20492;-89
2023/12/23 07:29:26;;;;;;;6.70;1.45;;;6.00;99.90;;;;;;5015329;28;20457;-90
2023/12/23 07:31:52;;;;;;;5.10;0.80;;;6.00;99.90;;;;;;5013209;28;20444;-90
2023/12/23 07:34:18;;;;;;;4.93;0.90;;;6.00;99.90;;;;;;5063983;28;20405;-90
2023/12/23 07:36:43;;;;;;;6.63;0.90;;;6.00;99.90;;;;;;5014206;28;20919;-90
2023/12/23 07:39:09;;;;;;;5.05;0.65;;;6.10;99.90;;;;;;5014763;28;20437;-90
2023/12/23 07:41:35;;;;;;;4.30;0.57;;;5.90;99.90;;;;;;5014848;28;20471;-93
2023/12/23 07:44:00;;;;;;;4.30;0.60;;;5.90;99.90;;;;;;5013679;28;20880;-91
2023/12/23 07:46:26;;;;;;;6.75;0.70;;;5.90;99.90;;;;;;5015258;28;20492;-93
2023/12/23 07:48:51;;;;;;;4.63;0.90;;;5.80;99.90;;;;;;5013267;28;20535;-91
2023/12/23 07:51:19;;;;;;;3.67;0.90;;;6.10;99.90;;;;;;5014482;28;20900;-90
2023/12/23 07:53:45;;;;;;;4.45;0.80;;;6.00;99.90;;;;;;5013237;28;20389;-94
2023/12/23 07:56:11;;;;;;;4.70;1.02;;;5.90;99.90;;;;;;5015062;28;20401;-92
2023/12/23 07:58:36;;;;;;;4.93;1.60;;;5.80;99.90;;;;;;5014547;28;20417;-92
2023/12/23 08:01:02;;;;;;;6.70;1.73;;;5.90;99.90;;;;;;5013662;28;20468;-92
2023/12/23 08:03:28;;;;;;;4.03;1.00;;;5.80;99.90;;;;;;5014740;28;20409;-90
2023/12/23 08:05:54;;;;;;;7.57;2.70;;;5.80;99.90;;;;;;5012273;28;20474;-90
2023/12/23 08:08:19;;;;;;;7.95;1.92;;;5.80;99.90;;;;;;5013681;28;20413;-92
2023/12/23 08:10:45;;;;;;;6.60;2.47;;;5.70;99.90;;;;;;5011956;28;20787;-90
2023/12/23 08:13:10;;;;;;;6.97;2.63;;;5.70;99.90;;;;;;5029837;28;20405;-91
2023/12/23 08:15:36;;;;;;;5.60;1.67;;;5.80;99.90;;;;;;5012190;28;20406;-90
2023/12/23 08:18:02;;;;;;;3.70;1.03;;;6.00;99.90;;;;;;5029238;28;20418;-90
2023/12/23 08:20:28;;;;;;;4.30;2.00;;;5.80;99.90;;;;;;5013577;28;20486;-90
2023/12/23 08:22:54;;;;;;;7.20;2.00;;;5.80;99.90;;;;;;5011945;28;20433;-90
2023/12/23 08:25:19;;;;;;;3.25;1.20;;;5.80;99.90;;;;;;5030238;28;20410;-91
2023/12/23 08:27:45;;;;;;;3.28;0.65;;;6.00;99.90;;;;;;5011787;28;20443;-90
2023/12/23 08:30:11;;;;;;;2.90;0.40;;;6.10;99.90;;;;;;5013779;28;20413;-91
2023/12/23 08:32:37;;;;;;;3.50;0.63;;;5.90;99.90;;;;;;5011766;28;20405;-90
2023/12/23 08:35:02;;;;;;;6.60;1.10;;;5.90;99.90;;;;;;4993155;28;20399;-91
2023/12/23 08:37:28;;;;;;;3.72;0.90;;;6.00;99.90;;;;;;5004734;28;20407;-92
2023/12/23 08:39:54;;;;;;;5.00;1.30;;;6.00;99.90;;;;;;5002536;28;20478;-90
2023/12/23 08:42:20;;;;;;;2.22;0.52;;;6.00;99.90;;;;;;5013143;28;20421;-91
2023/12/23 08:44:47;;;;;;;3.50;2.08;;;6.10;99.90;;;;;;5011833;28;21049;-90
2023/12/23 08:47:13;;;;;;;4.38;1.63;;;6.00;99.90;;;;;;5014008;28;20410;-91
2023/12/23 08:49:42;;;;;;;4.63;1.70;;;6.00;99.90;;;;;;5028327;28;20401;-92
2023/12/23 08:52:08;;;;;;;3.88;1.42;;;6.00;99.90;;;;;;5013078;28;20447;-90
2023/12/23 08:54:34;;;;;;;4.13;1.80;;;5.90;99.90;;;;;;5012345;28;20401;-89
2023/12/23 08:56:59;;;;;;;3.28;1.75;;;5.80;99.90;;;;;;5012569;28;20998;-91
2023/12/23 08:59:25;;;;;;;4.20;2.53;;;6.10;99.90;;;;;;5012858;28;20405;-92
2023/12/23 09:01:50;;;;;;;5.27;1.80;;;5.90;99.90;;;;;;5011377;28;20482;-90
2023/12/23 09:04:18;;;;;;;8.55;5.38;;;5.90;99.90;;;;;;5017481;28;20908;-92
2023/12/23 09:06:43;;;;;;;2.72;1.48;;;6.10;99.90;;;;;;5015414;28;20417;-91
2023/12/23 09:09:09;;;;;;;2.50;1.00;;;5.90;99.90;;;;;;5017079;28;20734;-91
2023/12/23 09:11:43;;;;;;;2.92;1.00;;;6.10;99.90;;;;;;5015253;28;20413;-90
2023/12/23 09:14:12;;;;;;;2.70;0.73;;;6.10;99.90;;;;;;5032583;28;20413;-91
2023/12/23 09:16:38;;;;;;;3.08;1.02;;;5.90;99.90;;;;;;5016555;28;20416;-90
2023/12/23 09:19:04;;;;;;;3.22;0.98;;;6.00;99.90;;;;;;5032099;28;20738;-91
2023/12/23 09:21:32;;;;;;;2.10;0.40;;;6.00;99.90;;;;;;5016117;28;21226;-91
2023/12/23 09:23:58;;;;;;;1.88;0.50;;;6.00;99.90;;;;;;5014811;28;20465;-90
2023/12/23 09:26:24;;;;;;;2.83;0.37;;;6.00;99.90;;;;;;5016988;28;20504;-91
2023/12/23 09:28:51;;;;;;;1.20;0.30;;;6.10;99.90;;;;;;5015037;28;20408;-90
2023/12/23 09:31:16;;;;;;;1.50;0.35;;;6.10;99.90;;;;;;5032473;28;20500;-92
2023/12/23 09:33:42;;;;;;;1.80;0.40;;;6.10;99.90;;;;;;5016282;28;20504;-90
2023/12/23 09:36:08;;;;;;;2.25;0.43;;;6.10;99.90;;;;;;5015317;28;20402;-90
2023/12/23 09:38:33;;;;;;;2.28;0.70;;;6.10;99.90;;;;;;5016236;28;20417;-91
2023/12/23 09:40:59;;;;;;;2.00;0.70;;;6.20;99.90;;;;;;5014425;28;20448;-92
2023/12/23 09:43:25;;;;;;;2.63;0.75;;;6.10;99.90;;;;;;5016010;28;20478;-90
2023/12/23 09:45:52;;;;;;;2.58;0.80;;;6.10;99.90;;;;;;5014494;28;20448;-90
2023/12/23 09:48:18;;;;;;;4.30;1.58;;;6.20;99.90;;;;;;5016068;28;20497;-90
2023/12/23 09:50:45;;;;;;;3.33;1.60;;;6.10;99.90;;;;;;5015647;28;20488;-91
2023/12/23 09:53:13;;;;;;;8.05;2.25;;;6.30;99.90;;;;;;5014887;28;20419;-91
2023/12/23 09:55:40;;;;;;;3.45;1.42;;;6.20;99.90;;;;;;5015926;28;20397;-90
2023/12/23 09:58:05;;;;;;;3.55;2.00;;;6.50;99.90;;;;;;5014471;28;20446;-91
2023/12/23 10:00:32;;;;;;;5.50;3.40;;;6.20;99.90;;;;;;5015897;28;20393;-90
2023/12/23 10:02:58;;;;;;;4.80;2.78;;;6.40;99.90;;;;;;5014186;28;20512;-91
2023/12/23 10:05:27;;;;;;;3.95;2.40;;;6.20;99.90;;;;;;5032141;28;20409;-91
2023/12/23 10:08:00;;;;;;;6.70;3.20;;;6.30;99.90;;;;;;5014942;28;20770;-89
2023/12/23 10:10:26;;;;;;;4.53;2.53;;;6.20;99.90;;;;;;5014923;28;20406;-92
2023/12/23 10:12:52;;;;;;;9.82;3.90;;;6.20;99.90;;;;;;5032091;28;20404;-91
2023/12/23 10:15:18;;;;;;;4.57;2.73;;;6.20;99.90;;;;;;5063195;28;20471;-90
2023/12/23 10:17:44;;;;;;;6.68;3.42;;;5.90;99.90;;;;;;5015699;28;20507;-92
2023/12/23 10:20:13;;;;;;;7.97;4.30;;;6.20;99.90;;;;;;5014211;28;20455;-90
2023/12/23 10:22:45;;;;;;;7.20;4.20;;;6.30;99.90;;;;;;5032087;28;20440;-91
2023/12/23 10:25:14;;;;;;;6.40;4.10;;;6.30;99.90;;;;;;5014408;28;20425;-91
2023/12/23 10:27:41;;;;;;;7.15;5.28;;;6.70;99.90;;;;;;5014409;28;20904;-91
2023/12/23 10:30:10;;;;;;;6.80;4.47;;;6.50;99.90;;;;;;5015296;28;20393;-91
2023/12/23 10:32:37;;;;;;;7.60;4.95;;;6.30;99.90;;;;;;5013563;28;20845;-90
2023/12/23 10:35:05;;;;;;;8.43;5.07;;;6.50;99.90;;;;;;5015456;28;20472;-90
2023/12/23 10:37:32;;;;;;;8.02;4.80;;;6.30;99.90;;;;;;5013331;28;20424;-91
2023/12/23 10:40:11;;;;;;;6.93;4.13;;;6.40;99.90;;;;;;5014973;28;20412;-93
2023/12/23 10:42:41;;;;;;;13.50;6.33;;;6.60;99.90;;;;;;5014671;28;20421;-90
2023/12/23 10:45:07;;;;;;;7.22;4.97;;;6.50;99.90;;;;;;5014673;28;20804;-91
2023/12/23 10:47:33;;;;;;;6.40;4.95;;;6.50;99.90;;;;;;5014651;28;20409;-89
2023/12/23 10:49:59;;;;;;;7.43;6.00;;;6.50;99.90;;;;;;5013210;28;20495;-90
2023/12/23 10:52:26;;;;;;;8.60;6.40;;;6.50;99.90;;;;;;5014715;28;20484;-91
2023/12/23 10:54:52;;;;;;;10.40;6.80;;;6.50;99.90;;;;;;5013552;28;20491;-90
2023/12/23 10:57:22;;;;;;;12.95;7.85;;;6.50;99.90;;;;;;5014980;28;20425;-91
2023/12/23 10:59:47;;;;;;;10.55;6.93;;;6.60;99.90;;;;;;5013797;28;20404;-93
2023/12/23 11:02:14;;;;;;;11.02;7.20;;;6.60;99.90;;;;;;5013740;28;20796;-90
2023/12/23 11:04:46;;;;;;;9.77;7.05;;;6.50;99.90;;;;;;5014845;28;20441;-90
2023/12/23 11:07:15;;;;;;;9.57;6.75;;;6.60;99.90;;;;;;5029718;28;20429;-92
2023/12/23 11:09:43;;;;;;;12.55;7.57;;;6.60;99.90;;;;;;5031246;28;20852;-90
2023/12/23 11:12:09;;;;;;;14.20;9.02;;;6.70;99.90;;;;;;5012841;28;20485;-90
2023/12/23 11:14:36;;;;;;;14.32;10.10;;;6.60;99.90;;;;;;5031044;28;20408;-91
2023/12/23 11:17:05;;;;;;;10.90;8.00;;;6.90;99.90;;;;;;5013611;28;20904;-91
2023/12/23 11:19:31;;;;;;;16.48;10.65;;;6.70;99.90;;;;;;5013817;28;20753;-90
2023/12/23 11:22:22;;;;;;;8.43;5.85;;;6.70;99.90;;;;;;5014168;28;20459;-91
2023/12/23 11:24:48;;;;;;;12.20;7.88;;;6.80;99.90;;;;;;5022260;28;20428;-90
2023/12/23 11:27:34;;;;;;;17.42;9.73;;;6.90;99.90;;;;;;5014076;28;20401;-91
2023/12/23 11:30:02;;;;;;;16.35;9.68;;;6.80;99.90;;;;;;5013325;28;20533;-91
2023/12/23 11:32:33;;;;;;;13.82;9.70;;;6.70;99.90;;;;;;5013297;28;20405;-91
2023/12/23 11:35:00;;;;;;;19.15;11.68;;;6.70;99.90;;;;;;5014318;28;20413;-91
2023/12/23 11:38:00;;;;;;;20.02;12.05;;;6.70;99.90;;;;;;5029016;28;20509;-90
2023/12/23 11:40:26;;;;;;;13.20;9.75;;;6.70;99.90;;;;;;5014542;28;20402;-91
2023/12/23 11:42:53;;;;;;;17.65;11.32;;;6.70;99.90;;;;;;5029205;28;20429;-90
2023/12/23 11:45:19;;;;;;;11.98;9.32;;;6.80;99.90;;;;;;5013543;28;20836;-90
2023/12/23 11:47:44;;;;;;;20.42;10.52;;;6.80;99.90;;;;;;5013839;28;20445;-91
2023/12/23 11:50:11;;;;;;;13.68;10.05;;;6.90;99.90;;;;;;5012975;28;20405;-89
2023/12/23 11:52:37;;;;;;;16.50;10.80;;;6.80;99.90;;;;;;5013955;28;20975;-89
2023/12/23 11:55:04;;;;;;;15.90;9.63;;;6.80;99.90;;;;;;5012163;28;20547;-91
2023/12/23 11:57:31;;;;;;;39.47;14.52;;;6.80;99.90;;;;;;5030178;28;20468;-91
2023/12/23 11:59:58;;;;;;;41.33;14.00;;;6.90;99.90;;;;;;5029134;28;20464;-91
2023/12/23 12:02:25;;;;;;;14.35;9.20;;;6.80;99.90;;;;;;5013289;28;20481;-90
2023/12/23 12:04:51;;;;;;;13.73;8.48;;;6.90;99.90;;;;;;5013098;28;20503;-90
2023/12/23 12:07:18;;;;;;;21.92;9.52;;;7.10;99.90;;;;;;5012452;28;20409;-91
2023/12/23 12:09:44;;;;;;;15.43;8.20;;;7.30;99.90;;;;;;5013770;28;20405;-91
2023/12/23 12:12:10;;;;;;;16.55;7.70;;;7.00;99.90;;;;;;5012030;28;20737;-92
2023/12/23 12:14:35;;;;;;;24.45;8.38;;;7.00;99.90;;;;;;5013560;28;20405;-91
2023/12/23 12:17:01;;;;;;;12.70;6.60;;;7.10;99.90;;;;;;5011909;28;20448;-90
2023/12/23 12:19:26;;;;;;;10.83;6.57;;;7.00;99.90;;;;;;5013027;28;20402;-91
2023/12/23 12:21:52;;;;;;;10.67;6.20;;;7.20;99.90;;;;;;5013090;28;20478;-90
2023/12/23 12:24:18;;;;;;;13.30;5.90;;;7.10;99.90;;;;;;5028748;28;20477;-92
2023/12/23 12:26:44;;;;;;;22.43;6.30;;;7.20;99.90;;;;;;5013231;28;20401;-92
2023/12/23 12:29:10;;;;;;;8.60;4.73;;;7.20;99.90;;;;;;5011418;28;20416;-91
2023/12/23 12:31:37;;;;;;;14.20;5.87;;;6.90;99.90;;;;;;5013487;28;20793;-92
2023/12/23 12:34:03;;;;;;;10.50;4.43;;;7.30;99.90;;;;;;5011405;28;20492;-89
2023/12/23 12:36:28;;;;;;;6.90;3.70;;;7.50;99.90;;;;;;5012823;28;20500;-90
2023/12/23 12:38:54;;;;;;;18.53;5.17;;;7.40;99.90;;;;;;5011772;28;20471;-92
2023/12/23 12:41:20;;;;;;;10.57;4.10;;;7.50;99.90;;;;;;5012420;28;20461;-92
2023/12/23 12:43:46;;;;;;;12.80;4.30;;;7.30;99.90;;;;;;5012941;28;20931;-92
2023/12/23 12:46:14;;;;;;;10.88;3.80;;;7.60;99.90;;;;;;5011523;28;20433;-92
2023/12/23 12:48:40;;;;;;;8.32;3.47;;;7.90;99.90;;;;;;5013369;28;20776;-94